메인 페이지
METAR-TAF:

METAR-TAF

공항 :

모로니, 코모로

위도: 11-32S, 경도: 043-16E, 고도: 29m

현재 날씨관측

예보는 37분 전, 22:00시(UTC)에 발표되었습니다.
동남동11kt
온도 24°C
습도 69%
기압 1015 hPa
시정 10km 이상
고도 2000ft 상공 구름 조금

METAR: FMCH 182200Z 12011KT 9999 FEW020 24/18 Q1015 NOSIG

시각: 01:37 (22:37 UTC)

예보

예보는 5 시간 37분 전, 17:00시(UTC)에 발표되었습니다.
예보 대상 시간: 18일 18시부터 19일 24시까지 (UTC)
동남동5kt
시정 10km 이상
고도 2000ft 상공 구름 조금
전환 중
19일 05시부터 19일 07시까지 (UTC)
10kt
전환 중
19일 15시부터 19일 17시까지 (UTC)
여러 방향의 바람 3kt

TAF: FMCH 181700Z 1818/1924 12005KT 9999 FEW020 BECMG 1905/1907 19010KT BECMG 1915/1917 VRB03KT

4,000개 이상의 공항 관측 자료 및 예보 (METAR 및 TAF 보고).

지도상에서 검색 가능한 기상관측소가 노란 점과 빨간 점으로 표시되어 있습니다.

기상관측소 명을 보려면 표시 위로 마우스를 이동하세요.

날씨 관측과 예보를 보려면 클릭하세요.

지도 변경 : 확대하려면 엑스 표시가 있는 녹색 버튼, 축소하려면 빼기 표시가 있는 녹색 버튼, 다음 페이지의 지도를 보려면 녹색 화살표를 클릭하세요.


METAR-TAF: